Time;durP1;ratioP1;P1;durP2;ratioP2;P2;SDS_P1;SDS_P2;PMS_P1;PMS_P2;Temp;Humidity;BMP_temperature;BMP_pressure;BME280_temperature;BME280_humidity;BME280_pressure;Samples;Min_cycle;Max_cycle;Signal;HPM_P1;HPM_P2
2022/04/25 00:02:21;;;;;;;8.97;8.07;;;;;;;;;;5005293;28;20194;-80
2022/04/25 00:04:47;;;;;;;9.97;7.60;;;;;;;;;;4998299;28;20437;-80
2022/04/25 00:07:13;;;;;;;7.50;6.17;;;;;;;;;;4984300;28;20438;-80
2022/04/25 00:09:39;;;;;;;9.40;6.65;;;;;;;;;;5000463;28;20447;-80
2022/04/25 00:12:05;;;;;;;11.93;7.27;;;;;;;;;;5001443;28;20210;-80
2022/04/25 00:14:31;;;;;;;10.30;7.53;;;;;;;;;;5001447;28;20453;-80
2022/04/25 00:16:57;;;;;;;9.00;6.67;;;;;;;;;;5001667;28;20222;-80
2022/04/25 00:19:24;;;;;;;10.80;7.38;;;;;;;;;;4983312;28;20466;-80
2022/04/25 00:21:51;;;;;;;10.48;7.55;;;;;;;;;;4988840;28;21014;-79
2022/04/25 00:24:17;;;;;;;7.35;6.60;;;;;;;;;;4986931;28;20194;-80
2022/04/25 00:26:43;;;;;;;8.52;7.68;;;;;;;;;;4985421;28;20186;-80
2022/04/25 00:29:09;;;;;;;13.97;8.10;;;;;;;;;;4987124;28;20184;-80
2022/04/25 00:31:35;;;;;;;10.03;7.90;;;;;;;;;;5001259;28;20951;-79
2022/04/25 00:34:01;;;;;;;10.85;6.68;;;;;;;;;;5000775;28;20460;-79
2022/04/25 00:36:27;;;;;;;8.80;6.70;;;;;;;;;;4987164;28;20274;-80
2022/04/25 00:38:53;;;;;;;7.40;6.70;;;;;;;;;;4985505;28;20301;-80
2022/04/25 00:41:19;;;;;;;13.05;6.72;;;;;;;;;;4988363;28;20608;-80
2022/04/25 00:43:45;;;;;;;10.93;7.15;;;;;;;;;;4999027;28;20187;-80
2022/04/25 00:46:21;;;;;;;6.47;5.33;;;;;;;;;;4987325;28;20653;-80
2022/04/25 00:48:47;;;;;;;8.65;5.43;;;;;;;;;;5000771;28;20454;-80
2022/04/25 00:51:13;;;;;;;10.07;6.60;;;;;;;;;;5000470;28;20187;-80
2022/04/25 00:53:39;;;;;;;7.78;6.93;;;;;;;;;;4986360;28;20181;-80
2022/04/25 00:56:06;;;;;;;8.27;6.40;;;;;;;;;;5003373;28;20176;-79
2022/04/25 00:58:32;;;;;;;8.30;6.45;;;;;;;;;;4982530;28;20480;-80
2022/04/25 01:00:58;;;;;;;8.32;5.63;;;;;;;;;;4983329;28;20206;-80
2022/04/25 01:03:24;;;;;;;8.50;6.65;;;;;;;;;;4987369;28;20183;-80
2022/04/25 01:05:50;;;;;;;7.93;5.68;;;;;;;;;;5001912;28;20637;-80
2022/04/25 01:08:16;;;;;;;10.48;6.47;;;;;;;;;;4971887;28;20658;-80
2022/04/25 01:10:43;;;;;;;8.95;5.65;;;;;;;;;;4996588;28;20183;-79
2022/04/25 01:13:11;;;;;;;9.23;6.75;;;;;;;;;;4999876;28;20202;-80
2022/04/25 01:15:37;;;;;;;10.52;6.95;;;;;;;;;;4983022;28;20179;-79
2022/04/25 01:18:03;;;;;;;8.70;5.80;;;;;;;;;;5002778;28;20183;-80
2022/04/25 01:20:29;;;;;;;9.32;5.60;;;;;;;;;;5004502;28;20186;-80
2022/04/25 01:28:34;;;;;;;8.85;6.93;;;;;;;;;;5000140;28;20241;-80
2022/04/25 01:31:00;;;;;;;6.13;5.47;;;;;;;;;;5001016;28;20187;-79
2022/04/25 01:33:26;;;;;;;7.47;6.13;;;;;;;;;;5000077;28;20442;-79
2022/04/25 01:35:52;;;;;;;8.65;6.28;;;;;;;;;;4984083;28;20198;-79
2022/04/25 01:38:18;;;;;;;16.83;6.60;;;;;;;;;;4987953;28;20179;-79
2022/04/25 01:40:44;;;;;;;8.80;5.87;;;;;;;;;;4998994;28;20516;-79
2022/04/25 01:43:10;;;;;;;6.50;5.78;;;;;;;;;;4981542;28;21127;-80
2022/04/25 01:45:36;;;;;;;8.70;5.88;;;;;;;;;;4986828;28;20633;-80
2022/04/25 01:48:02;;;;;;;6.67;6.00;;;;;;;;;;4995657;28;20198;-79
2022/04/25 01:50:28;;;;;;;9.83;6.03;;;;;;;;;;5002992;28;20422;-79
2022/04/25 01:52:54;;;;;;;7.60;5.77;;;;;;;;;;5000439;28;20442;-79
2022/04/25 01:55:20;;;;;;;7.73;6.27;;;;;;;;;;5000131;28;20445;-79
2022/04/25 01:57:46;;;;;;;9.50;7.27;;;;;;;;;;5000280;28;20450;-79
2022/04/25 02:00:12;;;;;;;12.00;5.90;;;;;;;;;;5000332;28;20570;-79
2022/04/25 02:02:38;;;;;;;10.07;5.80;;;;;;;;;;4985269;28;20427;-79
2022/04/25 02:05:06;;;;;;;10.90;6.15;;;;;;;;;;4989272;28;20183;-79
2022/04/25 02:07:32;;;;;;;8.90;7.00;;;;;;;;;;4982961;28;20181;-80
2022/04/25 02:09:58;;;;;;;12.18;6.63;;;;;;;;;;4986451;28;20187;-80
2022/04/25 02:12:24;;;;;;;11.30;5.80;;;;;;;;;;4999126;28;20231;-80
2022/04/25 02:14:50;;;;;;;12.23;6.65;;;;;;;;;;5001488;28;20587;-79
2022/04/25 02:17:16;;;;;;;10.82;5.97;;;;;;;;;;4987417;28;20227;-79
2022/04/25 02:19:44;;;;;;;8.88;6.63;;;;;;;;;;4997408;28;20219;-80
2022/04/25 02:22:10;;;;;;;8.93;6.07;;;;;;;;;;4985985;28;20190;-80
2022/04/25 02:24:37;;;;;;;11.35;6.57;;;;;;;;;;5000274;28;20182;-79
2022/04/25 02:27:03;;;;;;;8.43;5.97;;;;;;;;;;4983327;28;20187;-80
2022/04/25 02:29:33;;;;;;;14.40;7.07;;;;;;;;;;5002255;28;20188;-79
2022/04/25 02:32:00;;;;;;;8.35;6.20;;;;;;;;;;4982117;28;20243;-80
2022/04/25 02:34:26;;;;;;;13.27;7.70;;;;;;;;;;4984232;28;20194;-80
2022/04/25 02:36:52;;;;;;;13.32;7.07;;;;;;;;;;4991955;28;20187;-80
2022/04/25 02:39:18;;;;;;;10.73;6.65;;;;;;;;;;5000440;28;20214;-79
2022/04/25 02:41:44;;;;;;;10.52;6.60;;;;;;;;;;4984325;28;20408;-81
2022/04/25 02:44:10;;;;;;;11.40;7.32;;;;;;;;;;5000651;28;20549;-79
2022/04/25 02:46:36;;;;;;;11.32;6.43;;;;;;;;;;5001013;28;20191;-80
2022/04/25 02:49:02;;;;;;;9.10;6.82;;;;;;;;;;4988302;28;20183;-79
2022/04/25 02:51:28;;;;;;;11.82;7.10;;;;;;;;;;5002920;28;20191;-79
2022/04/25 02:53:54;;;;;;;11.20;6.40;;;;;;;;;;4987302;28;20192;-80
2022/04/25 02:56:20;;;;;;;11.25;7.57;;;;;;;;;;4987823;28;20223;-80
2022/04/25 02:58:46;;;;;;;10.20;7.03;;;;;;;;;;4997420;28;20638;-80
2022/04/25 03:01:12;;;;;;;10.18;7.68;;;;;;;;;;5000322;28;20213;-79
2022/04/25 03:03:39;;;;;;;10.20;7.68;;;;;;;;;;5001862;28;20214;-79
2022/04/25 03:06:06;;;;;;;12.45;7.53;;;;;;;;;;5001830;28;20295;-80
2022/04/25 03:08:34;;;;;;;13.02;7.75;;;;;;;;;;4985397;28;20190;-80
2022/04/25 03:11:00;;;;;;;13.02;7.70;;;;;;;;;;4975866;28;20191;-80
2022/04/25 03:13:26;;;;;;;11.30;6.47;;;;;;;;;;5001883;28;20187;-79
2022/04/25 03:15:52;;;;;;;12.80;7.50;;;;;;;;;;5002410;28;20473;-82
2022/04/25 03:18:19;;;;;;;10.40;7.03;;;;;;;;;;4987535;28;20191;-80
2022/04/25 03:20:48;;;;;;;14.30;6.90;;;;;;;;;;5005057;28;20167;-79
2022/04/25 03:23:14;;;;;;;16.20;8.15;;;;;;;;;;4988562;28;20179;-79
2022/04/25 03:25:41;;;;;;;11.13;7.32;;;;;;;;;;5001900;28;20534;-80
2022/04/25 03:28:07;;;;;;;9.80;7.63;;;;;;;;;;4983929;28;20194;-80
2022/04/25 03:30:33;;;;;;;11.10;6.93;;;;;;;;;;5002709;28;20198;-79
2022/04/25 03:32:59;;;;;;;13.07;7.80;;;;;;;;;;4996903;28;20187;-79
2022/04/25 03:35:26;;;;;;;12.48;7.38;;;;;;;;;;5005198;28;20568;-80
2022/04/25 03:37:52;;;;;;;10.68;7.53;;;;;;;;;;5004490;28;20200;-79
2022/04/25 03:40:19;;;;;;;9.15;7.80;;;;;;;;;;5001729;28;20234;-79
2022/04/25 03:42:45;;;;;;;13.15;7.68;;;;;;;;;;5002204;28;20207;-79
2022/04/25 03:45:12;;;;;;;13.13;8.05;;;;;;;;;;5002068;28;20203;-82
2022/04/25 03:47:38;;;;;;;11.05;7.60;;;;;;;;;;4988026;28;20543;-80
2022/04/25 03:50:07;;;;;;;12.23;8.80;;;;;;;;;;4986307;28;20175;-82
2022/04/25 03:52:33;;;;;;;25.85;9.00;;;;;;;;;;4984369;28;20190;-80
2022/04/25 03:57:44;;;;;;;16.05;8.85;;;;;;;;;;5002094;28;20226;-80
2022/04/25 04:00:11;;;;;;;16.80;9.65;;;;;;;;;;4986998;28;20226;-79
2022/04/25 04:02:37;;;;;;;16.17;7.63;;;;;;;;;;5005117;28;20175;-79
2022/04/25 04:05:03;;;;;;;14.68;9.70;;;;;;;;;;5001887;28;20175;-80
2022/04/25 04:07:29;;;;;;;14.93;9.18;;;;;;;;;;5001478;28;20179;-79
2022/04/25 04:09:56;;;;;;;14.13;8.05;;;;;;;;;;5002765;28;20217;-79
2022/04/25 04:12:24;;;;;;;19.23;10.52;;;;;;;;;;5002477;28;20726;-79
2022/04/25 04:14:50;;;;;;;16.40;9.35;;;;;;;;;;4984828;28;20242;-79
2022/04/25 04:17:17;;;;;;;12.90;9.82;;;;;;;;;;5005459;28;20211;-79
2022/04/25 04:19:47;;;;;;;14.80;11.15;;;;;;;;;;4989337;28;20234;-80
2022/04/25 04:22:13;;;;;;;19.95;10.05;;;;;;;;;;4988921;28;20179;-80
2022/04/25 04:24:39;;;;;;;21.27;11.35;;;;;;;;;;5001016;28;20199;-79
2022/04/25 04:27:06;;;;;;;18.52;10.20;;;;;;;;;;4986271;28;20187;-79
2022/04/25 04:29:33;;;;;;;13.07;10.18;;;;;;;;;;4999419;28;20179;-80
2022/04/25 04:32:05;;;;;;;17.40;10.57;;;;;;;;;;5001473;28;20219;-79
2022/04/25 04:34:31;;;;;;;16.00;10.65;;;;;;;;;;5000663;28;20179;-79
2022/04/25 04:36:59;;;;;;;18.30;10.50;;;;;;;;;;5001132;28;20191;-79
2022/04/25 04:39:25;;;;;;;18.80;11.05;;;;;;;;;;5001895;28;20210;-80
2022/04/25 04:41:51;;;;;;;18.58;11.10;;;;;;;;;;5002443;28;20350;-79
2022/04/25 04:44:17;;;;;;;15.80;10.53;;;;;;;;;;4972017;28;20211;-79
2022/04/25 04:46:43;;;;;;;22.98;11.90;;;;;;;;;;4988745;28;20435;-81
2022/04/25 04:49:09;;;;;;;19.25;12.27;;;;;;;;;;4994195;28;20756;-79
2022/04/25 04:51:35;;;;;;;16.98;11.30;;;;;;;;;;4988777;28;20222;-80
2022/04/25 04:54:02;;;;;;;19.60;10.98;;;;;;;;;;5001162;28;20192;-79
2022/04/25 04:56:29;;;;;;;19.65;12.90;;;;;;;;;;4980610;28;20256;-80
2022/04/25 04:58:55;;;;;;;25.05;12.23;;;;;;;;;;4983287;28;20203;-80
2022/04/25 05:01:21;;;;;;;16.73;11.85;;;;;;;;;;5000693;28;20326;-79
2022/04/25 05:03:47;;;;;;;17.38;12.52;;;;;;;;;;4986448;28;20237;-80
2022/04/25 05:06:13;;;;;;;20.10;11.67;;;;;;;;;;4999275;28;20183;-79
2022/04/25 05:08:40;;;;;;;22.38;12.55;;;;;;;;;;5003631;28;20410;-79
2022/04/25 05:11:08;;;;;;;19.67;12.63;;;;;;;;;;4985211;28;20198;-79
2022/04/25 05:13:35;;;;;;;20.35;13.38;;;;;;;;;;4987012;28;20183;-79
2022/04/25 05:16:01;;;;;;;18.92;12.02;;;;;;;;;;4985449;28;20242;-79
2022/04/25 05:18:32;;;;;;;21.60;14.10;;;;;;;;;;4995659;28;20233;-79
2022/04/25 05:21:01;;;;;;;26.77;14.02;;;;;;;;;;4982965;28;20194;-81
2022/04/25 05:23:28;;;;;;;27.15;16.15;;;;;;;;;;5002898;28;20234;-88
2022/04/25 05:25:54;;;;;;;19.75;13.50;;;;;;;;;;5000129;28;20279;-80
2022/04/25 05:28:22;;;;;;;23.58;14.90;;;;;;;;;;5001718;28;20179;-80
2022/04/25 05:30:48;;;;;;;22.40;14.93;;;;;;;;;;4988261;28;20185;-80
2022/04/25 05:33:14;;;;;;;25.70;14.48;;;;;;;;;;5001763;28;20642;-81
2022/04/25 05:35:41;;;;;;;19.38;14.48;;;;;;;;;;5002587;28;20522;-81
2022/04/25 05:38:09;;;;;;;20.40;14.43;;;;;;;;;;5002756;28;20171;-79
2022/04/25 05:40:36;;;;;;;23.10;16.35;;;;;;;;;;4987127;28;20274;-80
2022/04/25 05:43:03;;;;;;;24.35;14.95;;;;;;;;;;4987195;28;20207;-81
2022/04/25 05:45:29;;;;;;;20.45;15.10;;;;;;;;;;4988825;28;20214;-80
2022/04/25 05:47:55;;;;;;;22.55;17.25;;;;;;;;;;4985619;28;20179;-81
2022/04/25 05:53:07;;;;;;;22.85;16.17;;;;;;;;;;5001082;28;20202;-80
2022/04/25 05:55:33;;;;;;;21.88;16.75;;;;;;;;;;4999893;28;20179;-82
2022/04/25 05:58:01;;;;;;;25.65;16.77;;;;;;;;;;4999828;28;20306;-82
2022/04/25 06:00:27;;;;;;;22.08;16.27;;;;;;;;;;4985860;28;20214;-82
2022/04/25 06:02:55;;;;;;;24.83;18.08;;;;;;;;;;5001955;28;20241;-83
2022/04/25 06:05:21;;;;;;;24.10;16.35;;;;;;;;;;5001984;28;20191;-81
2022/04/25 06:07:47;;;;;;;25.20;17.00;;;;;;;;;;4999694;28;20188;-80
2022/04/25 06:10:15;;;;;;;26.52;18.70;;;;;;;;;;4987925;28;20190;-81
2022/04/25 06:12:41;;;;;;;28.00;18.77;;;;;;;;;;4986274;28;20354;-80
2022/04/25 06:15:07;;;;;;;22.90;16.02;;;;;;;;;;4984469;28;20187;-83
2022/04/25 06:17:33;;;;;;;22.88;18.23;;;;;;;;;;4986227;28;20306;-82
2022/04/25 06:19:59;;;;;;;22.50;17.07;;;;;;;;;;4993961;28;20252;-81
2022/04/25 06:22:25;;;;;;;27.88;17.80;;;;;;;;;;5004384;28;20430;-82
2022/04/25 06:24:51;;;;;;;23.58;17.88;;;;;;;;;;5001748;28;20262;-81
2022/04/25 06:27:17;;;;;;;28.60;17.40;;;;;;;;;;5003499;28;20230;-81
2022/04/25 06:29:46;;;;;;;19.77;17.60;;;;;;;;;;5005935;28;20436;-81
2022/04/25 06:32:12;;;;;;;28.45;17.13;;;;;;;;;;5003405;28;20210;-80
2022/04/25 06:34:39;;;;;;;24.35;16.80;;;;;;;;;;4986979;28;20218;-81
2022/04/25 06:37:05;;;;;;;24.27;17.05;;;;;;;;;;5003384;28;20191;-81
2022/04/25 06:39:32;;;;;;;24.10;16.55;;;;;;;;;;4991834;28;20317;-81
2022/04/25 06:41:58;;;;;;;24.30;17.50;;;;;;;;;;4986659;28;20182;-85
2022/04/25 06:44:24;;;;;;;20.05;16.45;;;;;;;;;;4988717;28;20274;-80
2022/04/25 06:46:50;;;;;;;20.83;17.05;;;;;;;;;;4986297;28;20184;-81
2022/04/25 06:49:24;;;;;;;21.83;18.23;;;;;;;;;;5004475;28;20526;-82
2022/04/25 06:51:52;;;;;;;26.08;18.02;;;;;;;;;;4986618;28;20266;-83
2022/04/25 06:54:18;;;;;;;23.73;17.27;;;;;;;;;;4991937;28;20195;-83
2022/04/25 06:56:44;;;;;;;31.25;18.30;;;;;;;;;;4987339;28;20176;-82
2022/04/25 06:59:10;;;;;;;25.50;18.80;;;;;;;;;;4997649;28;20215;-81
2022/04/25 07:01:36;;;;;;;27.48;17.35;;;;;;;;;;4984860;28;20183;-80
2022/04/25 07:04:03;;;;;;;26.77;18.15;;;;;;;;;;5000533;28;20190;-81
2022/04/25 07:06:29;;;;;;;23.45;17.90;;;;;;;;;;4990943;28;20243;-79
2022/04/25 07:08:55;;;;;;;24.30;17.83;;;;;;;;;;5004461;28;20171;-80
2022/04/25 07:11:21;;;;;;;22.53;16.70;;;;;;;;;;5006948;28;20426;-82
2022/04/25 07:13:47;;;;;;;20.90;17.45;;;;;;;;;;5002313;28;20449;-82
2022/04/25 07:16:14;;;;;;;21.08;17.58;;;;;;;;;;4988987;28;20223;-84
2022/04/25 07:18:40;;;;;;;22.33;17.92;;;;;;;;;;5003508;28;20210;-84
2022/04/25 07:29:21;;;;;;;24.50;17.40;;;;;;;;;;5002841;28;20191;-78
2022/04/25 07:31:47;;;;;;;24.67;18.00;;;;;;;;;;4992344;28;21103;-78
2022/04/25 07:34:13;;;;;;;21.63;17.92;;;;;;;;;;5003048;28;20206;-78
2022/04/25 07:36:39;;;;;;;24.77;18.20;;;;;;;;;;5001522;28;20218;-78
2022/04/25 07:39:05;;;;;;;22.45;18.13;;;;;;;;;;4985398;28;20231;-79
2022/04/25 07:41:31;;;;;;;24.00;20.00;;;;;;;;;;4980409;28;20218;-77
2022/04/25 07:43:58;;;;;;;23.48;17.23;;;;;;;;;;4984328;28;20191;-79
2022/04/25 07:46:26;;;;;;;24.40;18.95;;;;;;;;;;4997689;28;20581;-79
2022/04/25 07:48:53;;;;;;;20.00;17.13;;;;;;;;;;4985573;28;20195;-78
2022/04/25 07:51:19;;;;;;;20.65;18.20;;;;;;;;;;4985966;28;20191;-78
2022/04/25 07:53:45;;;;;;;19.38;16.38;;;;;;;;;;5004680;28;20186;-79
2022/04/25 07:56:11;;;;;;;24.83;17.15;;;;;;;;;;5002886;28;20676;-78
2022/04/25 07:58:37;;;;;;;22.63;16.85;;;;;;;;;;5001795;28;20730;-78
2022/04/25 08:01:04;;;;;;;25.17;17.63;;;;;;;;;;5002251;28;20187;-77
2022/04/25 08:03:34;;;;;;;24.05;18.80;;;;;;;;;;4989730;28;20652;-77
2022/04/25 08:06:00;;;;;;;22.23;16.88;;;;;;;;;;5002659;28;20186;-78
2022/04/25 08:08:26;;;;;;;25.42;17.50;;;;;;;;;;4988129;28;20175;-78
2022/04/25 08:10:52;;;;;;;24.95;17.20;;;;;;;;;;4988231;28;20226;-78
2022/04/25 08:18:49;;;;;;;19.17;16.40;;;;;;;;;;4996046;28;20234;-78
2022/04/25 08:21:15;;;;;;;22.23;16.92;;;;;;;;;;5001746;28;20184;-78
2022/04/25 08:23:45;;;;;;;20.50;15.60;;;;;;;;;;5003786;28;20173;-79
2022/04/25 08:26:11;;;;;;;24.10;17.77;;;;;;;;;;5003436;28;20438;-77
2022/04/25 08:28:37;;;;;;;19.77;16.10;;;;;;;;;;5002756;28;20187;-78
2022/04/25 08:31:04;;;;;;;18.65;15.68;;;;;;;;;;5000454;28;20183;-79
2022/04/25 08:33:30;;;;;;;20.55;17.20;;;;;;;;;;4984658;28;20214;-77
2022/04/25 08:35:58;;;;;;;17.80;15.88;;;;;;;;;;5002479;28;20191;-79
2022/04/25 08:38:24;;;;;;;17.45;14.50;;;;;;;;;;5003774;28;20173;-78
2022/04/25 08:40:51;;;;;;;18.42;15.93;;;;;;;;;;4989378;28;20194;-79
2022/04/25 08:43:18;;;;;;;18.70;15.30;;;;;;;;;;4972439;28;20265;-79
2022/04/25 08:45:45;;;;;;;19.85;15.32;;;;;;;;;;4983186;28;20254;-78
2022/04/25 08:48:11;;;;;;;18.60;15.85;;;;;;;;;;4984530;28;20188;-80
2022/04/25 08:50:38;;;;;;;21.15;15.43;;;;;;;;;;5004388;28;20177;-78
2022/04/25 08:53:05;;;;;;;20.83;17.00;;;;;;;;;;5001520;28;20266;-78
2022/04/25 08:55:31;;;;;;;17.42;14.95;;;;;;;;;;4983513;28;20187;-78
2022/04/25 08:57:59;;;;;;;18.70;15.25;;;;;;;;;;4982739;28;20558;-77
2022/04/25 09:00:25;;;;;;;19.85;16.30;;;;;;;;;;4985833;28;20212;-78
2022/04/25 09:02:51;;;;;;;22.63;16.45;;;;;;;;;;4978858;28;20223;-78
2022/04/25 09:05:18;;;;;;;22.25;16.40;;;;;;;;;;4993359;28;20186;-77
2022/04/25 09:07:44;;;;;;;20.30;14.45;;;;;;;;;;4993051;28;20176;-76
2022/04/25 09:10:15;;;;;;;22.38;15.50;;;;;;;;;;4990014;28;20192;-85
2022/04/25 09:12:42;;;;;;;19.73;16.48;;;;;;;;;;4989597;28;20192;-78
2022/04/25 09:15:08;;;;;;;18.67;14.43;;;;;;;;;;4991294;28;20669;-78
2022/04/25 09:17:37;;;;;;;19.67;14.02;;;;;;;;;;5001764;28;20230;-79
2022/04/25 09:20:03;;;;;;;18.70;14.80;;;;;;;;;;5003442;28;20278;-79
2022/04/25 09:22:34;;;;;;;17.63;14.18;;;;;;;;;;5000008;28;20179;-77
2022/04/25 09:25:04;;;;;;;19.13;14.35;;;;;;;;;;5000048;28;20601;-79
2022/04/25 09:27:30;;;;;;;17.33;13.93;;;;;;;;;;4980888;28;20234;-78
2022/04/25 09:29:56;;;;;;;16.58;13.18;;;;;;;;;;5001551;28;20307;-78
2022/04/25 09:32:31;;;;;;;14.88;12.88;;;;;;;;;;4971846;28;20187;-79
2022/04/25 09:35:00;;;;;;;16.50;13.85;;;;;;;;;;4994420;28;20189;-78
2022/04/25 09:37:41;;;;;;;21.95;13.77;;;;;;;;;;5000193;28;20187;-78
2022/04/25 09:40:08;;;;;;;18.40;14.35;;;;;;;;;;4999950;28;20210;-78
2022/04/25 09:42:34;;;;;;;17.27;13.15;;;;;;;;;;4986108;28;20597;-77
2022/04/25 09:45:00;;;;;;;17.48;12.90;;;;;;;;;;4998609;28;20183;-80
2022/04/25 09:47:26;;;;;;;17.83;13.13;;;;;;;;;;4985454;28;20210;-79
2022/04/25 09:50:18;;;;;;;17.60;14.27;;;;;;;;;;5001849;28;20194;-78
2022/04/25 09:52:53;;;;;;;19.73;14.05;;;;;;;;;;4996283;28;20456;-79
2022/04/25 09:55:20;;;;;;;16.80;12.23;;;;;;;;;;4999646;28;20179;-79
2022/04/25 09:57:50;;;;;;;13.68;11.55;;;;;;;;;;4985903;28;20214;-81
2022/04/25 10:00:33;;;;;;;17.42;12.73;;;;;;;;;;5003937;28;20199;-80
2022/04/25 10:03:00;;;;;;;15.07;11.63;;;;;;;;;;4987456;28;20196;-80
2022/04/25 10:05:36;;;;;;;16.33;12.32;;;;;;;;;;5006337;28;20170;-80
2022/04/25 10:08:02;;;;;;;18.65;13.23;;;;;;;;;;5005302;28;20559;-79
2022/04/25 10:10:28;;;;;;;17.23;13.23;;;;;;;;;;5002414;28;20198;-79
2022/04/25 10:12:55;;;;;;;13.93;12.00;;;;;;;;;;4989752;28;20194;-79
2022/04/25 10:15:22;;;;;;;14.27;10.57;;;;;;;;;;4989640;28;20529;-80
2022/04/25 10:17:48;;;;;;;14.60;12.18;;;;;;;;;;4988346;28;20234;-79
2022/04/25 10:20:15;;;;;;;14.27;11.75;;;;;;;;;;5002068;28;20214;-78
2022/04/25 10:22:42;;;;;;;13.95;10.35;;;;;;;;;;5000406;28;20193;-78
2022/04/25 10:25:08;;;;;;;11.95;10.35;;;;;;;;;;4989242;28;20601;-79
2022/04/25 10:27:35;;;;;;;10.75;9.75;;;;;;;;;;4985933;28;20184;-79
2022/04/25 10:30:07;;;;;;;11.98;10.50;;;;;;;;;;4987035;28;20186;-78
2022/04/25 10:32:33;;;;;;;12.57;9.98;;;;;;;;;;5007636;28;20210;-79
2022/04/25 10:35:01;;;;;;;15.38;11.60;;;;;;;;;;4987433;28;20191;-76
2022/04/25 10:37:29;;;;;;;14.95;10.57;;;;;;;;;;4988383;28;20215;-78
2022/04/25 10:39:56;;;;;;;10.43;9.43;;;;;;;;;;5002435;28;20296;-79
2022/04/25 10:45:07;;;;;;;12.02;9.15;;;;;;;;;;4983038;28;20203;-78
2022/04/25 10:47:33;;;;;;;10.95;9.95;;;;;;;;;;5007766;28;20176;-80
2022/04/25 10:49:59;;;;;;;13.40;10.25;;;;;;;;;;5003883;28;20191;-81
2022/04/25 10:55:20;;;;;;;10.93;9.15;;;;;;;;;;5004113;28;20191;-79
2022/04/25 10:58:05;;;;;;;15.85;9.93;;;;;;;;;;4987300;28;20206;-79
2022/04/25 11:00:40;;;;;;;9.80;8.90;;;;;;;;;;4975937;28;20494;-80
2022/04/25 11:03:19;;;;;;;9.10;8.30;;;;;;;;;;4994900;28;20206;-78
2022/04/25 11:05:45;;;;;;;7.00;6.30;;;;;;;;;;5000480;28;20180;-78
2022/04/25 11:08:17;;;;;;;7.53;6.70;;;;;;;;;;5003231;28;20194;-77
2022/04/25 11:10:47;;;;;;;11.05;8.02;;;;;;;;;;5000677;28;20244;-78
2022/04/25 11:13:14;;;;;;;11.65;9.65;;;;;;;;;;4989811;28;20553;-78
2022/04/25 11:15:40;;;;;;;9.30;7.40;;;;;;;;;;5001499;28;20273;-78
2022/04/25 11:18:35;;;;;;;11.87;7.07;;;;;;;;;;4986730;28;20571;-78
2022/04/25 11:21:05;;;;;;;20.13;7.70;;;;;;;;;;5003081;28;20451;-79
2022/04/25 11:23:32;;;;;;;8.50;7.57;;;;;;;;;;5005410;28;20179;-78
2022/04/25 11:26:01;;;;;;;11.35;8.77;;;;;;;;;;4992137;28;20820;-79
2022/04/25 11:28:28;;;;;;;9.65;8.52;;;;;;;;;;4985141;28;20257;-78
2022/04/25 11:31:13;;;;;;;9.95;7.95;;;;;;;;;;4987177;28;20189;-77
2022/04/25 11:33:43;;;;;;;9.45;8.45;;;;;;;;;;4989182;28;20209;-78
2022/04/25 11:36:11;;;;;;;7.40;6.80;;;;;;;;;;4985968;28;20194;-79
2022/04/25 11:41:26;;;;;;;6.85;6.25;;;;;;;;;;5005219;28;20533;-81
2022/04/25 11:43:52;;;;;;;6.45;5.82;;;;;;;;;;5001793;28;20202;-78
2022/04/25 11:46:18;;;;;;;5.77;4.83;;;;;;;;;;5002250;28;20186;-78
2022/04/25 11:48:51;;;;;;;6.13;5.53;;;;;;;;;;5001598;28;20475;-78
2022/04/25 11:51:37;;;;;;;7.68;6.82;;;;;;;;;;5002236;28;20664;-77
2022/04/25 11:54:04;;;;;;;7.90;6.80;;;;;;;;;;4979738;28;20182;-76
2022/04/25 11:56:32;;;;;;;6.15;5.65;;;;;;;;;;5006180;28;20186;-78
2022/04/25 11:58:58;;;;;;;6.03;5.43;;;;;;;;;;4989012;28;20218;-80
2022/04/25 12:01:37;;;;;;;6.18;5.05;;;;;;;;;;5001848;28;20185;-77
2022/04/25 12:04:36;;;;;;;6.50;5.13;;;;;;;;;;4999572;28;20183;-76
2022/04/25 12:07:08;;;;;;;4.97;4.20;;;;;;;;;;4936134;29;20189;-79
2022/04/25 12:18:12;;;;;;;4.38;3.70;;;;;;;;;;4933673;29;20720;-78
2022/04/25 12:20:40;;;;;;;3.30;3.00;;;;;;;;;;4932217;29;20226;-79
2022/04/25 12:23:06;;;;;;;3.90;3.22;;;;;;;;;;4937613;29;20200;-78
2022/04/25 12:25:33;;;;;;;4.60;4.20;;;;;;;;;;4938090;29;20221;-78
2022/04/25 12:28:03;;;;;;;4.87;3.53;;;;;;;;;;4943723;29;20208;-79
2022/04/25 12:30:32;;;;;;;4.23;3.83;;;;;;;;;;4945480;29;20435;-79
2022/04/25 12:33:09;;;;;;;4.13;3.63;;;;;;;;;;4917305;29;20431;-78
2022/04/25 12:35:35;;;;;;;3.85;3.45;;;;;;;;;;4913354;29;20439;-78
2022/04/25 12:38:02;;;;;;;3.50;3.10;;;;;;;;;;4944468;29;20240;-79
2022/04/25 12:40:28;;;;;;;5.17;2.90;;;;;;;;;;4939291;29;20520;-78
2022/04/25 12:42:54;;;;;;;3.30;3.10;;;;;;;;;;4977773;28;20409;-78
2022/04/25 12:45:21;;;;;;;3.67;3.37;;;;;;;;;;5003105;28;20449;-78
2022/04/25 12:47:54;;;;;;;7.90;3.20;;;;;;;;;;5003538;28;20411;-78
2022/04/25 12:50:39;;;;;;;6.70;4.27;;;;;;;;;;4998737;28;20663;-78
2022/04/25 12:53:06;;;;;;;4.33;2.83;;;;;;;;;;5001049;28;20788;-82
2022/04/25 12:55:42;;;;;;;2.97;2.67;;;;;;;;;;5001329;28;20897;-79
2022/04/25 12:58:08;;;;;;;3.33;2.90;;;;;;;;;;5000467;28;20437;-79
2022/04/25 13:00:47;;;;;;;4.37;3.43;;;;;;;;;;5000975;28;20466;-79
2022/04/25 13:03:13;;;;;;;3.63;3.33;;;;;;;;;;4972940;28;20430;-80
2022/04/25 13:05:39;;;;;;;5.00;2.93;;;;;;;;;;4985356;28;20942;-80
2022/04/25 13:08:06;;;;;;;2.90;2.60;;;;;;;;;;4991100;28;20482;-81
2022/04/25 13:10:32;;;;;;;5.23;2.63;;;;;;;;;;5000580;28;20991;-80
2022/04/25 13:12:58;;;;;;;2.57;2.23;;;;;;;;;;4986654;28;20424;-79
2022/04/25 13:15:25;;;;;;;4.40;2.10;;;;;;;;;;4987487;28;20442;-79
2022/04/25 13:17:51;;;;;;;3.90;2.93;;;;;;;;;;5002237;28;20447;-80
2022/04/25 13:20:20;;;;;;;5.40;2.47;;;;;;;;;;5004515;28;20505;-83
2022/04/25 13:22:46;;;;;;;7.60;2.67;;;;;;;;;;4987918;28;20416;-78
2022/04/25 13:25:14;;;;;;;6.60;2.97;;;;;;;;;;4987397;28;20864;-80
2022/04/25 13:27:40;;;;;;;3.07;2.70;;;;;;;;;;4999933;28;20492;-79
2022/04/25 13:30:07;;;;;;;2.60;2.40;;;;;;;;;;4999369;28;20441;-79
2022/04/25 13:32:36;;;;;;;3.87;2.50;;;;;;;;;;4999635;28;20424;-79
2022/04/25 13:35:03;;;;;;;5.77;2.50;;;;;;;;;;4984634;28;20447;-80
2022/04/25 13:37:30;;;;;;;3.73;2.40;;;;;;;;;;4997636;28;20436;-79
2022/04/25 13:39:57;;;;;;;3.50;2.50;;;;;;;;;;4987479;28;20490;-79
2022/04/25 13:42:23;;;;;;;3.37;2.70;;;;;;;;;;4994682;28;20438;-79
2022/04/25 13:44:49;;;;;;;2.75;2.00;;;;;;;;;;4999652;28;20777;-80
2022/04/25 13:47:15;;;;;;;4.95;2.60;;;;;;;;;;5003352;28;20190;-80
2022/04/25 13:49:41;;;;;;;3.00;2.22;;;;;;;;;;4982507;28;20198;-79
2022/04/25 13:52:08;;;;;;;2.60;1.67;;;;;;;;;;5001681;28;20189;-79
2022/04/25 13:54:35;;;;;;;1.90;1.70;;;;;;;;;;5000336;28;20432;-79
2022/04/25 13:57:01;;;;;;;3.05;1.65;;;;;;;;;;4999743;28;20222;-79
2022/04/25 13:59:27;;;;;;;3.40;2.10;;;;;;;;;;4983043;28;20263;-79
2022/04/25 14:01:53;;;;;;;2.97;1.77;;;;;;;;;;4999852;28;20188;-79
2022/04/25 14:04:19;;;;;;;2.30;2.10;;;;;;;;;;4998703;28;20194;-81
2022/04/25 14:06:45;;;;;;;2.83;2.50;;;;;;;;;;4998919;28;20430;-80
2022/04/25 14:09:11;;;;;;;2.38;2.17;;;;;;;;;;4984924;28;20441;-84
2022/04/25 14:11:37;;;;;;;5.70;2.07;;;;;;;;;;5001439;28;20214;-81
2022/04/25 14:14:04;;;;;;;4.63;1.87;;;;;;;;;;5000448;28;20472;-79
2022/04/25 14:16:31;;;;;;;2.53;2.00;;;;;;;;;;4999000;28;20874;-79
2022/04/25 14:18:57;;;;;;;1.95;1.85;;;;;;;;;;4998322;28;20469;-79
2022/04/25 14:21:23;;;;;;;3.10;2.20;;;;;;;;;;4995360;28;20190;-79
2022/04/25 14:23:49;;;;;;;7.30;2.20;;;;;;;;;;4984175;28;20425;-79
2022/04/25 14:26:17;;;;;;;2.60;2.28;;;;;;;;;;4983900;28;20423;-80
2022/04/25 14:28:44;;;;;;;2.67;1.83;;;;;;;;;;4997580;28;20186;-79
2022/04/25 14:31:10;;;;;;;4.47;2.10;;;;;;;;;;4993193;28;20189;-79
2022/04/25 14:33:37;;;;;;;2.80;1.90;;;;;;;;;;4997470;28;20185;-82
2022/04/25 14:36:03;;;;;;;2.70;2.30;;;;;;;;;;4981532;28;20197;-81
2022/04/25 14:38:30;;;;;;;3.63;1.80;;;;;;;;;;4995364;28;20733;-82
2022/04/25 14:40:56;;;;;;;3.85;1.98;;;;;;;;;;4981042;28;20216;-79
2022/04/25 14:43:23;;;;;;;2.00;1.90;;;;;;;;;;4998612;28;20189;-87
2022/04/25 14:45:49;;;;;;;3.95;1.55;;;;;;;;;;5001903;28;20193;-81
2022/04/25 14:48:16;;;;;;;2.60;2.10;;;;;;;;;;4979921;28;20193;-82
2022/04/25 14:56:11;;;;;;;2.25;2.05;;;;;;;;;;5004052;28;20190;-83
2022/04/25 14:58:37;;;;;;;2.23;1.67;;;;;;;;;;4984552;28;20188;-82
2022/04/25 15:01:03;;;;;;;5.23;1.80;;;;;;;;;;4998323;28;20935;-82
2022/04/25 15:03:32;;;;;;;4.43;2.13;;;;;;;;;;4975607;28;20458;-82
2022/04/25 15:05:59;;;;;;;3.58;2.00;;;;;;;;;;4995191;28;20191;-83
2022/04/25 15:08:26;;;;;;;5.20;2.22;;;;;;;;;;5005750;28;20443;-80
2022/04/25 15:10:52;;;;;;;3.70;1.92;;;;;;;;;;5002587;28;20183;-82
2022/04/25 15:13:18;;;;;;;5.00;2.22;;;;;;;;;;5003528;28;20195;-81
2022/04/25 15:15:47;;;;;;;2.87;1.90;;;;;;;;;;4984445;28;20235;-81
2022/04/25 15:18:13;;;;;;;1.90;1.80;;;;;;;;;;4986146;28;20976;-81